Time;durP1;ratioP1;P1;durP2;ratioP2;P2;SDS_P1;SDS_P2;PMS_P1;PMS_P2;Temp;Humidity;BMP_temperature;BMP_pressure;BME280_temperature;BME280_humidity;BME280_pressure;Samples;Min_cycle;Max_cycle;Signal;HPM_P1;HPM_P2
2022/12/26 00:00:58;;;;;;;2.05;1.67;;;10.20;99.90;;;;;;5005918;28;20019;-65
2022/12/26 00:03:24;;;;;;;3.53;2.08;;;10.20;99.90;;;;;;4996930;28;20036;-66
2022/12/26 00:05:49;;;;;;;1.73;1.52;;;10.30;99.90;;;;;;4998323;28;20033;-65
2022/12/26 00:08:15;;;;;;;3.88;1.52;;;10.20;99.90;;;;;;4998664;28;20360;-65
2022/12/26 00:10:41;;;;;;;3.30;2.13;;;10.20;99.90;;;;;;4997670;28;20395;-64
2022/12/26 00:13:07;;;;;;;1.00;0.98;;;10.20;99.90;;;;;;4995064;28;20026;-67
2022/12/26 00:15:33;;;;;;;2.88;2.15;;;10.10;99.90;;;;;;4994905;28;20024;-67
2022/12/26 00:17:59;;;;;;;3.15;2.05;;;10.10;99.90;;;;;;5002002;28;20495;-65
2022/12/26 00:20:25;;;;;;;6.43;4.10;;;10.20;99.90;;;;;;4996426;28;20034;-65
2022/12/26 00:22:51;;;;;;;6.68;1.13;;;10.20;99.90;;;;;;4997759;28;20501;-66
2022/12/26 00:25:17;;;;;;;5.47;2.88;;;10.20;99.90;;;;;;4995829;28;20501;-69
2022/12/26 00:27:43;;;;;;;2.28;2.08;;;10.20;99.90;;;;;;4997772;28;20022;-66
2022/12/26 00:30:10;;;;;;;3.03;1.88;;;10.20;99.90;;;;;;4992490;28;20062;-66
2022/12/26 00:32:35;;;;;;;4.35;2.65;;;10.20;99.90;;;;;;4995961;28;20023;-64
2022/12/26 00:35:01;;;;;;;4.55;1.00;;;10.20;99.90;;;;;;4996549;28;20543;-64
2022/12/26 00:37:27;;;;;;;0.98;0.60;;;10.20;99.90;;;;;;4994283;28;20577;-66
2022/12/26 00:39:53;;;;;;;5.65;4.43;;;10.20;99.90;;;;;;4987934;28;20027;-64
2022/12/26 00:42:19;;;;;;;3.40;2.95;;;10.20;99.90;;;;;;4977044;28;20092;-65
2022/12/26 00:44:45;;;;;;;4.38;2.95;;;10.20;99.90;;;;;;4997092;28;20034;-65
2022/12/26 00:47:11;;;;;;;3.20;2.28;;;10.20;99.90;;;;;;5000817;28;20014;-65
2022/12/26 00:49:37;;;;;;;0.63;0.63;;;10.30;99.90;;;;;;4995323;28;20036;-65
2022/12/26 00:52:03;;;;;;;2.90;1.50;;;10.30;99.90;;;;;;4992787;28;20498;-65
2022/12/26 00:54:30;;;;;;;4.55;3.08;;;10.40;99.90;;;;;;4994404;28;20026;-64
2022/12/26 00:56:56;;;;;;;3.10;2.15;;;10.30;99.90;;;;;;4988329;28;20022;-64
2022/12/26 00:59:22;;;;;;;4.07;2.70;;;10.30;99.90;;;;;;4993840;28;20510;-65
2022/12/26 01:01:48;;;;;;;1.65;1.27;;;10.30;99.90;;;;;;4996747;28;20535;-64
2022/12/26 01:04:14;;;;;;;6.10;4.40;;;10.30;99.90;;;;;;4991781;28;20118;-64
2022/12/26 01:06:40;;;;;;;4.82;3.50;;;10.30;99.90;;;;;;4995962;28;20022;-64
2022/12/26 01:09:07;;;;;;;9.52;1.40;;;10.30;99.90;;;;;;5002630;28;20014;-65
2022/12/26 01:11:42;;;;;;;2.17;1.38;;;10.40;99.90;;;;;;4995152;28;20104;-66
2022/12/26 01:14:13;;;;;;;1.63;1.50;;;10.40;99.90;;;;;;4995715;28;20065;-64
2022/12/26 01:16:39;;;;;;;1.88;1.77;;;10.30;99.90;;;;;;4994576;28;20034;-64
2022/12/26 01:19:06;;;;;;;4.20;3.55;;;10.30;99.90;;;;;;5008004;28;20553;-64
2022/12/26 01:21:32;;;;;;;10.90;7.13;;;10.30;99.90;;;;;;4994063;28;20077;-64
2022/12/26 01:23:58;;;;;;;2.22;1.88;;;10.30;99.90;;;;;;4992284;28;20029;-64
2022/12/26 01:26:24;;;;;;;0.85;0.20;;;10.30;99.90;;;;;;5000353;28;20463;-65
2022/12/26 01:28:51;;;;;;;11.02;6.88;;;10.20;99.90;;;;;;4994481;28;20034;-65
2022/12/26 01:31:18;;;;;;;7.10;3.42;;;10.20;99.90;;;;;;4994854;28;20429;-64
2022/12/26 01:33:44;;;;;;;1.00;0.88;;;10.10;99.90;;;;;;4992834;28;20146;-65
2022/12/26 01:36:10;;;;;;;3.65;2.22;;;10.20;99.90;;;;;;4996854;28;20550;-64
2022/12/26 01:38:37;;;;;;;0.70;0.60;;;10.20;99.90;;;;;;4997676;28;20034;-65
2022/12/26 01:41:21;;;;;;;2.38;2.17;;;10.20;99.90;;;;;;4995028;28;20069;-65
2022/12/26 01:43:59;;;;;;;10.32;5.03;;;10.20;99.90;;;;;;4995960;28;20030;-66
2022/12/26 01:46:45;;;;;;;3.25;1.77;;;10.10;99.90;;;;;;4994192;28;20026;-65
2022/12/26 01:49:17;;;;;;;1.95;1.73;;;10.20;99.90;;;;;;4992474;28;20043;-65
2022/12/26 01:51:51;;;;;;;3.13;2.05;;;10.20;99.90;;;;;;4993401;28;20030;-65
2022/12/26 01:54:18;;;;;;;5.53;3.75;;;10.20;99.90;;;;;;4995390;28;20019;-65
2022/12/26 01:56:46;;;;;;;5.00;3.30;;;10.10;99.90;;;;;;4994438;28;20065;-66
2022/12/26 01:59:19;;;;;;;3.53;3.00;;;10.30;99.90;;;;;;4998773;28;20038;-65
2022/12/26 02:01:49;;;;;;;6.35;4.85;;;10.20;99.90;;;;;;4994240;28;20049;-66
2022/12/26 02:07:04;;;;;;;18.60;2.45;;;10.20;99.90;;;;;;5002408;28;20458;-66
2022/12/26 02:09:31;;;;;;;0.20;0.20;;;10.10;99.90;;;;;;4973145;28;20053;-65
2022/12/26 02:12:25;;;;;;;2.97;1.92;;;10.10;99.90;;;;;;4982777;28;20489;-65
2022/12/26 02:14:51;;;;;;;5.38;2.53;;;10.10;99.90;;;;;;5011093;28;20038;-65
2022/12/26 02:17:17;;;;;;;2.95;1.98;;;9.90;99.90;;;;;;5013407;28;20030;-65
2022/12/26 02:20:09;;;;;;;3.17;2.30;;;9.90;99.90;;;;;;5013054;28;20038;-65
2022/12/26 02:22:53;;;;;;;2.22;1.92;;;9.90;99.90;;;;;;5013115;28;20359;-65
2022/12/26 02:25:39;;;;;;;2.10;1.45;;;9.90;99.90;;;;;;5002749;28;20049;-65
2022/12/26 02:28:30;;;;;;;6.03;2.72;;;9.90;99.90;;;;;;4995838;28;20057;-65
2022/12/26 02:31:24;;;;;;;0.47;0.45;;;9.90;99.90;;;;;;5012972;28;20194;-66
2022/12/26 02:34:14;;;;;;;5.05;3.25;;;9.90;99.90;;;;;;5002785;28;20478;-64
2022/12/26 02:36:55;;;;;;;0.93;0.90;;;9.90;99.90;;;;;;4995318;28;20502;-64
2022/12/26 02:39:45;;;;;;;4.60;3.42;;;9.80;99.90;;;;;;5013194;28;20046;-65
2022/12/26 02:42:23;;;;;;;4.95;2.03;;;9.80;99.90;;;;;;5013362;28;20513;-64
2022/12/26 02:47:57;;;;;;;4.47;2.65;;;9.70;99.90;;;;;;5012951;28;20018;-64
2022/12/26 03:14:15;;;;;;;0.63;0.60;;;9.50;99.90;;;;;;5011202;28;20557;-64
2022/12/26 03:19:30;;;;;;;1.90;1.33;;;9.50;99.90;;;;;;5012781;28;20394;-66
2022/12/26 03:21:59;;;;;;;2.20;1.85;;;9.50;99.90;;;;;;4995166;28;20505;-65
2022/12/26 03:26:38;;;;;;;1.80;1.70;;;9.40;99.90;;;;;;5012799;28;20467;-68
2022/12/26 03:27:11;;;;;;;1.90;1.00;;;9.50;99.90;;;;;;4995150;28;20490;-64
2022/12/26 03:32:22;;;;;;;2.63;2.20;;;9.50;99.90;;;;;;5012690;28;20521;-64
2022/12/26 03:34:48;;;;;;;0.95;0.80;;;9.50;99.90;;;;;;4998574;28;20054;-65
2022/12/26 03:37:38;;;;;;;2.08;1.10;;;9.50;99.90;;;;;;4997680;28;20018;-67
2022/12/26 04:44:27;;;;;;;0.65;0.65;;;9.70;99.90;;;;;;4975928;28;20034;-64
2022/12/26 04:46:55;;;;;;;0.70;0.63;;;9.80;99.90;;;;;;4976088;28;20035;-64
2022/12/26 04:52:10;;;;;;;8.77;3.03;;;9.80;99.90;;;;;;4972360;28;20050;-64
2022/12/26 04:54:36;;;;;;;1.08;0.93;;;9.70;99.90;;;;;;4975025;28;20502;-64
2022/12/26 04:57:02;;;;;;;2.45;1.42;;;9.80;99.90;;;;;;4975590;28;20027;-64
2022/12/26 04:59:27;;;;;;;4.03;2.55;;;9.80;99.90;;;;;;4975788;28;20034;-64
2022/12/26 05:10:19;;;;;;;4.35;2.13;;;10.00;99.90;;;;;;4975690;28;20038;-65
2022/12/26 05:12:44;;;;;;;3.95;2.58;;;10.10;99.90;;;;;;4975260;28;20058;-64
2022/12/26 05:15:11;;;;;;;1.20;1.10;;;10.10;99.90;;;;;;4974396;28;20065;-64
2022/12/26 05:28:43;;;;;;;1.17;1.05;;;10.00;99.90;;;;;;4975340;28;20023;-64
2022/12/26 05:31:16;;;;;;;0.90;0.90;;;9.90;99.90;;;;;;4975267;28;20185;-64
2022/12/26 05:36:33;;;;;;;6.80;2.15;;;10.00;99.90;;;;;;4974972;28;20030;-65
2022/12/26 05:39:00;;;;;;;4.38;2.45;;;10.00;99.90;;;;;;4975086;28;20043;-64
2022/12/26 05:41:26;;;;;;;2.50;1.27;;;9.90;99.90;;;;;;4973652;28;20026;-65
2022/12/26 05:43:52;;;;;;;1.85;1.65;;;9.90;99.90;;;;;;4975190;28;20388;-64
2022/12/26 05:46:18;;;;;;;0.77;0.77;;;10.00;99.90;;;;;;4974982;28;20515;-64
2022/12/26 05:48:44;;;;;;;3.50;2.28;;;10.00;99.90;;;;;;4975760;28;20110;-65
2022/12/26 05:51:11;;;;;;;4.13;1.67;;;10.10;99.90;;;;;;4974872;28;20075;-64
2022/12/26 05:53:38;;;;;;;4.93;2.85;;;10.00;99.90;;;;;;4975199;28;20034;-64
2022/12/26 05:56:06;;;;;;;4.68;1.15;;;10.00;99.90;;;;;;4974757;28;20027;-64
2022/12/26 05:58:32;;;;;;;1.73;0.95;;;9.90;99.90;;;;;;4974812;28;20038;-64
2022/12/26 06:01:11;;;;;;;1.05;0.85;;;10.00;99.90;;;;;;4974915;28;20042;-65
2022/12/26 06:03:38;;;;;;;0.65;0.65;;;10.00;99.90;;;;;;4974949;28;20093;-66
2022/12/26 06:06:05;;;;;;;2.58;0.70;;;10.00;99.90;;;;;;4973891;28;20031;-66
2022/12/26 06:08:31;;;;;;;2.67;1.58;;;9.90;99.90;;;;;;4972886;28;20023;-68
2022/12/26 06:10:57;;;;;;;7.10;1.75;;;9.90;99.90;;;;;;4974361;28;20022;-68
2022/12/26 06:13:24;;;;;;;2.63;1.10;;;10.00;99.90;;;;;;4988337;28;20018;-65
2022/12/26 06:15:49;;;;;;;1.55;0.98;;;10.00;99.90;;;;;;4972877;28;20035;-66
2022/12/26 06:18:16;;;;;;;3.10;1.75;;;10.00;99.90;;;;;;4973153;28;20046;-65
2022/12/26 06:20:41;;;;;;;1.33;0.50;;;10.10;99.90;;;;;;4973232;28;20023;-65
2022/12/26 06:23:07;;;;;;;1.73;0.65;;;10.10;99.90;;;;;;4972863;28;20046;-65
2022/12/26 06:25:33;;;;;;;0.45;0.43;;;10.10;99.90;;;;;;4973005;28;20022;-67
2022/12/26 06:27:59;;;;;;;2.72;1.02;;;10.10;99.90;;;;;;4972588;28;20027;-65
2022/12/26 06:30:25;;;;;;;0.75;0.75;;;10.10;99.90;;;;;;4975231;28;20022;-65
2022/12/26 06:32:52;;;;;;;1.52;1.05;;;10.10;99.90;;;;;;4973215;28;20031;-65
2022/12/26 06:35:18;;;;;;;1.17;0.85;;;10.10;99.90;;;;;;4972399;28;20512;-65
2022/12/26 06:37:44;;;;;;;1.52;1.38;;;10.10;99.90;;;;;;4972418;28;20035;-64
2022/12/26 06:40:10;;;;;;;0.30;0.30;;;10.10;99.90;;;;;;4972714;28;20015;-65
2022/12/26 06:42:36;;;;;;;2.90;1.55;;;10.10;99.90;;;;;;4972719;28;20467;-65
2022/12/26 06:45:03;;;;;;;3.90;1.77;;;10.10;99.90;;;;;;4977928;28;20036;-65
2022/12/26 06:47:29;;;;;;;0.52;0.47;;;10.10;99.90;;;;;;4971540;28;20030;-68
2022/12/26 06:49:55;;;;;;;1.67;0.85;;;10.10;99.90;;;;;;4972283;28;20442;-66
2022/12/26 06:52:20;;;;;;;3.13;1.38;;;10.10;99.90;;;;;;4972405;28;20162;-65
2022/12/26 06:54:46;;;;;;;6.68;1.17;;;10.20;99.90;;;;;;4972361;28;20027;-65
2022/12/26 06:57:12;;;;;;;0.50;0.50;;;10.20;99.90;;;;;;4970460;28;20532;-68
2022/12/26 06:59:38;;;;;;;1.05;0.70;;;10.20;99.90;;;;;;4972703;28;20074;-65
2022/12/26 07:02:04;;;;;;;3.28;1.30;;;10.20;99.90;;;;;;4972234;28;20046;-65
2022/12/26 07:04:30;;;;;;;1.38;0.70;;;10.30;99.90;;;;;;4972104;28;20114;-65
2022/12/26 07:06:56;;;;;;;0.20;0.20;;;10.30;99.90;;;;;;4971831;28;20523;-67
2022/12/26 07:09:22;;;;;;;7.15;1.48;;;10.20;99.90;;;;;;4972475;28;20467;-65
2022/12/26 07:11:49;;;;;;;2.08;1.08;;;10.20;99.90;;;;;;4972486;28;20377;-66
2022/12/26 07:14:16;;;;;;;2.03;1.10;;;10.20;99.90;;;;;;4970822;28;20031;-66
2022/12/26 07:16:43;;;;;;;2.42;0.90;;;10.20;99.90;;;;;;4972346;28;20070;-65
2022/12/26 07:19:10;;;;;;;0.50;0.50;;;10.30;99.90;;;;;;4971902;28;20046;-68
2022/12/26 07:21:37;;;;;;;1.60;1.27;;;10.30;99.90;;;;;;4972284;28;20396;-66
2022/12/26 07:24:03;;;;;;;1.20;1.05;;;10.30;99.90;;;;;;4987255;28;20037;-69
2022/12/26 07:26:29;;;;;;;7.68;1.50;;;10.30;99.90;;;;;;4972450;28;20102;-64
2022/12/26 07:28:57;;;;;;;4.75;1.35;;;10.30;99.90;;;;;;4974631;28;20030;-67
2022/12/26 07:31:24;;;;;;;8.07;1.10;;;10.30;99.90;;;;;;4971861;28;20070;-65
2022/12/26 07:33:53;;;;;;;0.45;0.45;;;10.40;99.90;;;;;;4972418;28;20027;-68
2022/12/26 07:36:20;;;;;;;0.10;0.10;;;10.50;99.90;;;;;;4967886;28;20045;-65
2022/12/26 07:38:47;;;;;;;1.65;0.50;;;10.50;99.90;;;;;;4970470;28;20101;-66
2022/12/26 07:43:59;;;;;;;1.30;0.85;;;10.60;99.90;;;;;;4970993;28;20130;-65
2022/12/26 07:46:25;;;;;;;1.10;0.70;;;10.50;99.90;;;;;;4970852;28;20022;-65
2022/12/26 07:48:51;;;;;;;0.40;0.40;;;10.50;99.90;;;;;;4969689;28;20048;-65
2022/12/26 07:51:16;;;;;;;4.65;1.42;;;10.50;99.90;;;;;;4969003;28;20038;-65
2022/12/26 07:53:42;;;;;;;1.08;0.98;;;10.50;99.90;;;;;;4974681;28;20121;-66
2022/12/26 07:56:08;;;;;;;2.60;0.95;;;10.40;99.90;;;;;;4975018;28;20022;-65
2022/12/26 07:58:34;;;;;;;0.40;0.38;;;10.40;99.90;;;;;;4986452;28;20062;-65
2022/12/26 08:01:03;;;;;;;1.02;0.82;;;10.50;99.90;;;;;;4974799;28;20030;-66
2022/12/26 08:03:29;;;;;;;2.20;1.08;;;10.40;99.90;;;;;;4975439;28;20031;-65
2022/12/26 08:05:56;;;;;;;1.10;0.68;;;10.40;99.90;;;;;;4975081;28;20068;-65
2022/12/26 08:08:22;;;;;;;14.23;0.65;;;10.40;99.90;;;;;;4975502;28;20093;-65
2022/12/26 08:10:48;;;;;;;0.30;0.30;;;10.40;99.90;;;;;;4974072;28;20409;-65
2022/12/26 08:13:14;;;;;;;2.03;0.85;;;10.40;99.90;;;;;;4975218;28;20030;-65
2022/12/26 08:15:40;;;;;;;2.72;0.75;;;10.40;99.90;;;;;;4974874;28;20034;-65
2022/12/26 08:18:06;;;;;;;5.97;1.15;;;10.40;99.90;;;;;;4990464;28;20170;-65
2022/12/26 08:20:32;;;;;;;2.20;0.98;;;10.40;99.90;;;;;;4973381;28;20411;-65
2022/12/26 08:22:58;;;;;;;0.65;0.65;;;10.40;99.90;;;;;;4974825;28;20043;-65
2022/12/26 08:25:24;;;;;;;3.05;0.63;;;10.50;99.90;;;;;;4975108;28;20027;-66
2022/12/26 08:27:50;;;;;;;0.38;0.38;;;10.50;99.90;;;;;;4974449;28;20059;-66
2022/12/26 08:30:16;;;;;;;0.10;0.10;;;10.50;99.90;;;;;;4975005;28;20105;-66
2022/12/26 08:32:42;;;;;;;4.13;1.13;;;10.70;99.90;;;;;;4974712;28;20739;-66
2022/12/26 08:35:08;;;;;;;0.10;0.10;;;10.70;99.90;;;;;;4974882;28;20038;-67
2022/12/26 08:37:34;;;;;;;2.35;1.00;;;10.80;99.90;;;;;;4984960;28;20069;-67
2022/12/26 08:39:59;;;;;;;3.63;0.50;;;10.90;99.90;;;;;;4983874;28;20103;-65
2022/12/26 08:42:25;;;;;;;2.22;0.82;;;10.80;99.90;;;;;;4974627;28;20442;-66
2022/12/26 08:44:51;;;;;;;2.92;0.40;;;10.70;99.90;;;;;;4973334;28;20041;-66
2022/12/26 08:47:17;;;;;;;0.98;0.73;;;10.80;99.90;;;;;;4975377;28;20110;-66
2022/12/26 08:49:43;;;;;;;1.58;0.68;;;10.80;99.90;;;;;;4974818;28;20062;-67
2022/12/26 08:52:09;;;;;;;3.03;0.82;;;10.80;99.90;;;;;;4975619;28;20068;-66
2022/12/26 08:54:35;;;;;;;6.47;0.93;;;10.80;99.90;;;;;;4975132;28;20523;-65
2022/12/26 08:57:01;;;;;;;4.15;0.85;;;10.90;99.90;;;;;;4975601;28;20494;-66
2022/12/26 08:59:27;;;;;;;0.57;0.57;;;10.80;99.90;;;;;;4974895;28;20034;-65
2022/12/26 09:01:53;;;;;;;3.55;0.65;;;10.80;99.90;;;;;;4975722;28;20134;-66
2022/12/26 09:04:19;;;;;;;5.93;1.00;;;11.00;99.90;;;;;;4974294;28;20030;-65
2022/12/26 09:06:45;;;;;;;3.33;0.73;;;10.90;99.90;;;;;;4975345;28;20031;-67
2022/12/26 09:09:11;;;;;;;11.77;1.77;;;10.90;99.90;;;;;;4975431;28;20023;-65
2022/12/26 09:11:38;;;;;;;4.07;0.47;;;10.80;99.90;;;;;;4974797;28;20034;-65
2022/12/26 09:14:05;;;;;;;3.13;0.73;;;10.80;99.90;;;;;;4974573;28;20063;-66
2022/12/26 09:16:35;;;;;;;1.95;0.28;;;10.70;99.90;;;;;;4973587;28;20491;-67
2022/12/26 09:19:03;;;;;;;6.75;0.80;;;10.70;99.90;;;;;;4972923;28;20408;-65
2022/12/26 09:21:29;;;;;;;3.47;0.75;;;10.70;99.90;;;;;;4974500;28;20027;-66
2022/12/26 09:24:01;;;;;;;5.65;0.82;;;10.70;99.90;;;;;;4975156;28;20058;-66
2022/12/26 09:26:28;;;;;;;4.35;1.25;;;10.70;99.90;;;;;;4974941;28;20472;-66
2022/12/26 09:28:54;;;;;;;2.78;1.08;;;10.60;99.90;;;;;;4973574;28;20035;-67
2022/12/26 09:31:23;;;;;;;2.85;1.17;;;10.60;99.90;;;;;;4973608;28;20097;-68
2022/12/26 09:33:49;;;;;;;1.05;0.73;;;10.60;99.90;;;;;;4962071;28;20026;-65
2022/12/26 09:36:18;;;;;;;2.47;1.30;;;10.60;99.90;;;;;;4974925;28;20031;-66
2022/12/26 09:38:45;;;;;;;0.82;0.82;;;10.60;99.90;;;;;;4974729;28;20067;-66
2022/12/26 09:41:33;;;;;;;0.93;0.68;;;10.70;99.90;;;;;;4974715;28;20464;-66
2022/12/26 09:44:29;;;;;;;1.67;1.15;;;10.80;99.90;;;;;;4969614;28;20174;-66
2022/12/26 09:47:25;;;;;;;1.65;0.90;;;10.80;99.90;;;;;;4973884;28;21757;-66
2022/12/26 09:49:57;;;;;;;2.05;0.68;;;10.70;99.90;;;;;;4973850;28;20035;-66
2022/12/26 09:52:45;;;;;;;0.08;0.08;;;10.70;99.90;;;;;;4974376;28;20027;-66
2022/12/26 09:55:44;;;;;;;6.40;0.65;;;10.10;99.90;;;;;;4973870;28;20030;-65
2022/12/26 09:58:31;;;;;;;6.03;0.82;;;9.70;99.90;;;;;;4973221;28;20045;-66
2022/12/26 10:01:00;;;;;;;2.95;0.63;;;9.60;99.90;;;;;;4972857;28;20034;-66
2022/12/26 10:03:26;;;;;;;0.20;0.20;;;9.50;99.90;;;;;;4973401;28;20027;-66
2022/12/26 10:06:40;;;;;;;1.10;0.38;;;9.50;99.90;;;;;;4973399;28;20042;-65
2022/12/26 10:09:27;;;;;;;3.00;0.98;;;9.50;99.90;;;;;;4961248;28;20038;-65
2022/12/26 10:12:14;;;;;;;5.00;0.63;;;9.40;99.90;;;;;;4973211;28;20404;-66
2022/12/26 10:14:58;;;;;;;4.47;0.95;;;9.40;99.90;;;;;;4972875;28;20081;-65
2022/12/26 10:17:37;;;;;;;0.57;0.50;;;9.40;99.90;;;;;;4974200;28;20110;-66
2022/12/26 10:20:18;;;;;;;2.33;0.65;;;9.30;99.90;;;;;;4988828;28;20047;-66
2022/12/26 10:23:08;;;;;;;0.40;0.40;;;9.30;99.90;;;;;;4973878;28;20031;-67
2022/12/26 10:25:37;;;;;;;0.80;0.57;;;9.20;99.90;;;;;;4973251;28;20103;-64
2022/12/26 10:28:07;;;;;;;7.40;0.90;;;9.30;99.90;;;;;;4972614;28;20117;-64
2022/12/26 10:30:40;;;;;;;2.85;0.68;;;9.20;99.90;;;;;;4971738;28;20023;-65
2022/12/26 10:33:19;;;;;;;4.22;2.28;;;9.20;99.90;;;;;;4973276;28;20068;-64
2022/12/26 10:35:46;;;;;;;10.88;3.20;;;9.10;99.90;;;;;;4988601;28;20392;-64
2022/12/26 10:38:30;;;;;;;3.13;0.77;;;9.10;99.90;;;;;;4973526;28;20061;-65
2022/12/26 10:41:10;;;;;;;1.02;0.73;;;9.10;99.90;;;;;;4971123;28;20053;-65
2022/12/26 10:43:41;;;;;;;6.15;1.83;;;9.10;99.90;;;;;;4973862;28;20027;-64
2022/12/26 10:46:16;;;;;;;4.97;0.35;;;9.00;99.90;;;;;;4972609;28;20018;-65
2022/12/26 10:48:43;;;;;;;6.07;1.08;;;9.10;99.90;;;;;;4973575;28;20066;-65
2022/12/26 10:51:10;;;;;;;10.68;2.05;;;8.90;99.90;;;;;;4971589;28;20026;-64
2022/12/26 10:53:41;;;;;;;0.63;0.20;;;8.80;99.90;;;;;;4972150;28;20030;-64
2022/12/26 10:56:08;;;;;;;2.45;0.77;;;8.80;99.90;;;;;;4973452;28;20027;-64
2022/12/26 10:58:36;;;;;;;1.88;0.68;;;8.70;99.90;;;;;;4971321;28;20411;-64
2022/12/26 11:01:27;;;;;;;0.20;0.20;;;8.70;99.90;;;;;;4972106;28;20041;-64
2022/12/26 11:03:58;;;;;;;0.55;0.55;;;8.80;99.90;;;;;;4973257;28;20034;-64
2022/12/26 11:06:51;;;;;;;2.60;0.50;;;8.80;99.90;;;;;;4972840;28;20031;-65
2022/12/26 11:09:44;;;;;;;1.00;0.45;;;8.90;99.90;;;;;;4973357;28;20061;-64
2022/12/26 11:12:26;;;;;;;1.20;1.10;;;9.00;99.90;;;;;;4973189;28;20077;-64
2022/12/26 11:15:05;;;;;;;2.35;0.85;;;9.00;99.90;;;;;;4972985;28;20113;-65
2022/12/26 11:17:38;;;;;;;0.00;0.00;;;9.00;99.90;;;;;;4972695;28;20039;-64
2022/12/26 11:20:20;;;;;;;0.40;0.40;;;9.20;99.90;;;;;;4987876;28;20113;-65
2022/12/26 11:22:46;;;;;;;1.45;0.88;;;9.40;99.90;;;;;;4975063;28;20066;-64
2022/12/26 11:25:26;;;;;;;10.77;1.45;;;9.20;99.90;;;;;;4976516;28;20101;-64
2022/12/26 11:27:55;;;;;;;1.55;0.90;;;9.00;99.90;;;;;;4976553;28;20025;-64
2022/12/26 11:30:26;;;;;;;3.25;1.27;;;9.10;99.90;;;;;;4976230;28;20019;-65
2022/12/26 11:33:22;;;;;;;2.33;0.55;;;9.10;99.90;;;;;;4976521;28;20053;-64
2022/12/26 11:36:06;;;;;;;0.63;0.30;;;8.90;99.90;;;;;;4977020;28;20029;-64
2022/12/26 11:38:43;;;;;;;8.20;2.70;;;9.30;99.90;;;;;;4976627;28;20050;-64
2022/12/26 11:41:31;;;;;;;0.00;0.00;;;9.50;99.90;;;;;;4976279;28;20033;-65
2022/12/26 11:44:15;;;;;;;0.10;0.10;;;9.30;99.90;;;;;;4976614;28;20027;-65
2022/12/26 11:47:04;;;;;;;0.45;0.45;;;9.30;99.90;;;;;;4976623;28;20041;-64
2022/12/26 11:49:46;;;;;;;1.02;0.25;;;9.00;99.90;;;;;;4969901;28;20034;-64
2022/12/26 11:52:36;;;;;;;6.28;1.58;;;8.80;99.90;;;;;;4976270;28;20077;-65
2022/12/26 11:55:25;;;;;;;1.00;0.20;;;8.70;99.90;;;;;;4974859;28;20030;-65
2022/12/26 11:58:05;;;;;;;0.00;0.00;;;8.80;99.90;;;;;;4976144;28;20069;-65
2022/12/26 12:00:33;;;;;;;0.10;0.10;;;8.70;99.90;;;;;;4970886;28;20057;-67
2022/12/26 12:02:59;;;;;;;0.10;0.10;;;8.80;99.90;;;;;;4975631;28;20134;-67
2022/12/26 12:05:48;;;;;;;0.00;0.00;;;8.80;99.90;;;;;;4976084;28;20061;-65
2022/12/26 12:08:48;;;;;;;0.52;0.22;;;9.00;99.90;;;;;;4969883;28;20026;-65
2022/12/26 12:11:40;;;;;;;0.08;0.08;;;9.00;99.90;;;;;;4974711;28;20110;-64
2022/12/26 12:14:11;;;;;;;6.93;0.70;;;8.70;99.90;;;;;;4957476;28;20039;-65
2022/12/26 12:16:52;;;;;;;0.10;0.10;;;8.60;99.90;;;;;;4976351;28;20023;-64
2022/12/26 12:19:37;;;;;;;0.63;0.52;;;8.60;99.90;;;;;;4974928;28;20042;-65
2022/12/26 12:22:30;;;;;;;0.08;0.08;;;8.50;99.90;;;;;;4976240;28;20045;-65
2022/12/26 12:25:01;;;;;;;0.00;0.00;;;8.40;99.90;;;;;;4976616;28;20066;-65
2022/12/26 12:27:47;;;;;;;0.65;0.60;;;8.60;99.90;;;;;;4975576;28;20049;-65
2022/12/26 12:30:21;;;;;;;1.88;1.00;;;8.60;99.90;;;;;;4976062;28;20504;-65
2022/12/26 12:32:50;;;;;;;0.30;0.20;;;8.70;99.90;;;;;;4975676;28;20049;-65
2022/12/26 12:35:40;;;;;;;3.00;0.57;;;8.60;99.90;;;;;;4975275;28;20472;-66
2022/12/26 12:38:09;;;;;;;0.08;0.08;;;8.50;99.90;;;;;;4975932;28;20468;-65
2022/12/26 12:40:41;;;;;;;0.10;0.10;;;8.50;99.90;;;;;;4971401;28;20491;-64
2022/12/26 12:43:10;;;;;;;1.65;0.28;;;8.60;99.90;;;;;;4973766;28;20023;-65
2022/12/26 12:46:03;;;;;;;0.73;0.50;;;8.60;99.90;;;;;;4976027;28;20027;-64
2022/12/26 12:48:53;;;;;;;0.25;0.05;;;8.50;99.90;;;;;;4972618;28;20118;-67
2022/12/26 12:51:26;;;;;;;1.25;0.55;;;8.60;99.90;;;;;;4975584;28;20039;-64
2022/12/26 12:54:17;;;;;;;2.17;1.00;;;8.50;99.90;;;;;;4975976;28;20031;-64
2022/12/26 12:57:03;;;;;;;0.47;0.47;;;8.40;99.90;;;;;;4975407;28;20034;-64
2022/12/26 12:59:42;;;;;;;0.00;0.00;;;8.40;99.90;;;;;;4970941;28;20039;-64
2022/12/26 13:02:50;;;;;;;0.10;0.10;;;8.40;99.90;;;;;;4961483;28;20023;-64
2022/12/26 13:05:47;;;;;;;0.00;0.00;;;8.40;99.90;;;;;;4961816;28;20184;-64
2022/12/26 13:08:19;;;;;;;0.85;0.82;;;8.50;99.90;;;;;;4971055;28;20315;-64
2022/12/26 13:10:53;;;;;;;0.93;0.52;;;8.40;99.90;;;;;;4974034;28;20031;-65
2022/12/26 13:13:23;;;;;;;3.08;1.17;;;8.40;99.90;;;;;;4975074;28;20034;-64
2022/12/26 13:15:55;;;;;;;0.20;0.20;;;8.40;99.90;;;;;;4975712;28;20149;-65
2022/12/26 13:18:28;;;;;;;2.88;0.98;;;8.50;99.90;;;;;;4975061;28;20459;-64
2022/12/26 13:21:05;;;;;;;2.22;1.10;;;8.70;99.90;;;;;;4975691;28;20034;-65
2022/12/26 13:26:37;;;;;;;0.52;0.52;;;10.30;99.90;;;;;;4974874;28;20392;-64
2022/12/26 13:29:30;;;;;;;0.00;0.00;;;11.10;99.90;;;;;;4975123;28;20124;-65
2022/12/26 13:32:00;;;;;;;2.53;1.23;;;10.70;99.90;;;;;;4965735;28;20034;-67
2022/12/26 13:34:27;;;;;;;0.10;0.10;;;10.30;99.90;;;;;;4975010;28;20446;-65
2022/12/26 13:36:55;;;;;;;0.10;0.10;;;9.80;99.90;;;;;;4975018;28;20039;-64
2022/12/26 13:39:31;;;;;;;1.13;0.28;;;9.80;99.90;;;;;;4974612;28;20047;-65
2022/12/26 13:44:50;;;;;;;0.28;0.28;;;9.80;99.90;;;;;;4974382;28;20034;-65
2022/12/26 13:47:37;;;;;;;11.70;1.23;;;9.90;99.90;;;;;;4974905;28;20046;-68
2022/12/26 13:50:40;;;;;;;2.63;0.70;;;9.50;99.90;;;;;;4973364;28;20030;-64
2022/12/26 13:53:24;;;;;;;2.17;1.13;;;9.00;99.90;;;;;;4973105;28;20039;-66
2022/12/26 13:55:51;;;;;;;3.92;1.60;;;9.20;99.90;;;;;;4974628;28;20046;-65
2022/12/26 13:58:50;;;;;;;3.38;1.70;;;9.60;99.90;;;;;;4974748;28;20133;-66
2022/12/26 14:01:42;;;;;;;0.10;0.10;;;9.50;99.90;;;;;;4974636;28;20364;-65
2022/12/26 14:04:14;;;;;;;8.25;1.40;;;10.10;99.90;;;;;;4973173;28;20026;-65
2022/12/26 14:06:48;;;;;;;0.43;0.43;;;10.40;99.90;;;;;;4974290;28;20030;-65
2022/12/26 14:09:32;;;;;;;;;;;10.30;99.90;;;;;;4975018;28;20391;-65
2022/12/26 14:12:21;;;;;;;0.57;0.32;;;10.50;99.90;;;;;;4974709;28;20020;-65
2022/12/26 14:15:24;;;;;;;5.07;1.27;;;10.50;99.90;;;;;;4974341;28;20069;-65
2022/12/26 14:18:05;;;;;;;11.50;0.90;;;10.60;99.90;;;;;;4974098;28;20034;-65
2022/12/26 14:20:43;;;;;;;3.58;0.30;;;10.20;99.90;;;;;;4974295;28;20043;-65
2022/12/26 14:23:09;;;;;;;0.20;0.20;;;10.10;99.90;;;;;;4974341;28;20041;-65
2022/12/26 14:25:43;;;;;;;0.68;0.65;;;10.00;99.90;;;;;;4974322;28;20022;-65
2022/12/26 14:28:32;;;;;;;0.43;0.38;;;9.70;99.90;;;;;;4974248;28;20050;-65
2022/12/26 14:31:18;;;;;;;0.40;0.40;;;9.30;99.90;;;;;;4972710;28;20392;-65
2022/12/26 14:34:05;;;;;;;0.68;0.35;;;8.80;99.90;;;;;;4974344;28;20147;-66
2022/12/26 14:36:48;;;;;;;1.20;0.22;;;8.50;99.90;;;;;;4973685;28;20483;-66
2022/12/26 14:39:20;;;;;;;3.85;0.60;;;8.40;99.90;;;;;;4973965;28;20046;-65
2022/12/26 14:44:55;;;;;;;0.90;0.50;;;8.10;99.90;;;;;;4973915;28;20628;-65
2022/12/26 14:47:41;;;;;;;0.10;0.10;;;8.00;99.90;;;;;;4974058;28;20373;-65
2022/12/26 14:50:49;;;;;;;1.92;1.23;;;8.00;99.90;;;;;;4972807;28;20484;-66
2022/12/26 14:53:27;;;;;;;0.85;0.85;;;7.80;99.90;;;;;;4967358;28;20089;-65
2022/12/26 14:56:03;;;;;;;4.60;0.75;;;7.70;99.90;;;;;;4967222;28;20550;-65
2022/12/26 14:58:46;;;;;;;0.10;0.10;;;7.70;99.90;;;;;;4942532;28;20480;-65
2022/12/26 15:01:14;;;;;;;2.72;0.50;;;7.50;99.90;;;;;;4926661;29;20098;-66
2022/12/26 15:04:04;;;;;;;0.35;0.35;;;7.50;99.90;;;;;;4934061;29;20121;-65
2022/12/26 15:06:55;;;;;;;0.20;0.20;;;7.40;99.90;;;;;;4935716;29;20032;-65
2022/12/26 15:09:30;;;;;;;0.00;0.00;;;7.30;99.90;;;;;;4939556;29;20059;-65
2022/12/26 15:11:59;;;;;;;0.70;0.70;;;7.30;99.90;;;;;;4945139;29;20032;-66
2022/12/26 15:15:02;;;;;;;10.02;1.08;;;7.30;99.90;;;;;;4949796;28;20020;-65
2022/12/26 15:17:47;;;;;;;0.50;0.25;;;7.20;99.90;;;;;;4937993;29;20044;-66
2022/12/26 15:20:21;;;;;;;2.90;0.32;;;7.20;99.90;;;;;;4926168;29;20512;-65
2022/12/26 15:23:06;;;;;;;1.02;0.60;;;7.10;99.90;;;;;;4934870;29;20489;-65
2022/12/26 15:25:38;;;;;;;4.22;0.57;;;7.00;99.90;;;;;;4934973;29;20032;-65
2022/12/26 15:28:45;;;;;;;0.30;0.30;;;6.90;99.90;;;;;;4934974;29;20067;-65
2022/12/26 15:31:46;;;;;;;1.60;1.15;;;6.90;99.90;;;;;;4934607;29;20085;-65
2022/12/26 15:34:36;;;;;;;0.50;0.50;;;6.80;99.90;;;;;;4934680;29;20114;-66
2022/12/26 15:37:11;;;;;;;0.45;0.22;;;6.80;99.90;;;;;;4938425;28;20083;-65
2022/12/26 15:40:15;;;;;;;4.38;1.52;;;6.80;99.90;;;;;;4932336;29;20485;-65